This is the latest recevied weather packets stored in our database for station/object EA4TN. If no packets are shown the sender has not sent any weather packets the latest 10 day(s).
| Time | Temp. | Humidity | Pressure | Rain* | Wind** | Luminosity | Snow |
|---|---|---|---|---|---|---|---|
| 1777896616 | 18.89° C | 45% | 1012.4 hPa | 0 mm | - | - | - |
| 1777894256 | 18.89° C | 47% | 1012.8 hPa | 0 mm | - | - | - |
| 1777893616 | 18.33° C | 48% | 1012.7 hPa | 0 mm | - | - | - |
| 1777887016 | 15.56° C | 66% | 1013.4 hPa | 0 mm | - | - | - |
| 1777885816 | 14.44° C | 76% | 1013.3 hPa | 0 mm | - | - | - |
| 1777885236 | 13.89° C | 76% | 1013.2 hPa | 0 mm | - | - | - |
| 1777875617 | 11.11° C | 83% | 1012.3 hPa | 0 mm | - | - | - |
| 1777870816 | 11.67° C | 79% | 1011.8 hPa | 0 mm | - | - | - |
| 1777869017 | 11.67° C | 78% | 1011.8 hPa | 0 mm | - | - | - |
| 1777867217 | 12.22° C | 77% | 1012.1 hPa | 0 mm | - | - | - |
| 1777866616 | 12.22° C | 76% | 1012.1 hPa | 0 mm | - | - | - |
| 1777864817 | 12.22° C | 75% | 1012.1 hPa | 0 mm | - | - | - |
| 1777856437 | 14.44° C | 68% | 1012.6 hPa | 0 mm | - | - | - |
| 1777852817 | 15° C | 66% | 1012.8 hPa | 0 mm | - | - | - |
| 1777851616 | 15.56° C | 65% | 1013.1 hPa | 0 mm | - | - | - |
| 1777847416 | 15.56° C | 65% | 1013 hPa | 0 mm | - | - | - |
| 1777845616 | 16.11° C | 63% | 1013.1 hPa | 0 mm | - | - | - |
| 1777845016 | 16.11° C | 63% | 1013.1 hPa | 0 mm | - | - | - |
| 1777843216 | 16.67° C | 58% | 1012.8 hPa | 0 mm | - | - | - |
| 1777840816 | 17.22° C | 60% | 1012.4 hPa | 0 mm | - | - | - |
| 1777836636 | 17.78° C | 59% | 1011.3 hPa | 0 mm | - | - | - |
| 1777834216 | 18.33° C | 57% | 1011 hPa | 0 mm | - | - | - |
| 1777830616 | 19.44° C | 54% | 1011.1 hPa | 0 mm | - | - | - |
| 1777828817 | 19.44° C | 53% | 1010.9 hPa | 0 mm | - | - | - |
| 1777828236 | 19.44° C | 54% | 1011 hPa | 0 mm | - | - | - |
* Rain latest hour (hover to see other rain measurements)
** Current wind speed in m/s (hover to see current wind gust speed)